sensor_id;sensor_type;location;lat;lon;timestamp;P1;durP1;ratioP1;P2;durP2;ratioP2
74689;SDS011;63221;51.860;-2.188;2023-04-01T00:01:58;1.20;;;0.63;;
74689;SDS011;63221;51.860;-2.188;2023-04-01T00:04:23;2.57;;;0.67;;
74689;SDS011;63221;51.860;-2.188;2023-04-01T00:06:49;2.35;;;0.80;;
74689;SDS011;63221;51.860;-2.188;2023-04-01T00:09:14;1.53;;;0.40;;
74689;SDS011;63221;51.860;-2.188;2023-04-01T00:11:40;2.20;;;0.97;;
74689;SDS011;63221;51.860;-2.188;2023-04-01T00:14:06;2.70;;;0.70;;
74689;SDS011;63221;51.860;-2.188;2023-04-01T00:16:32;2.75;;;0.93;;
74689;SDS011;63221;51.860;-2.188;2023-04-01T00:18:57;2.60;;;1.07;;
74689;SDS011;63221;51.860;-2.188;2023-04-01T00:21:23;3.47;;;1.03;;
74689;SDS011;63221;51.860;-2.188;2023-04-01T00:23:49;2.65;;;1.20;;
74689;SDS011;63221;51.860;-2.188;2023-04-01T00:26:15;1.30;;;0.35;;
74689;SDS011;63221;51.860;-2.188;2023-04-01T00:28:44;4.07;;;1.00;;
74689;SDS011;63221;51.860;-2.188;2023-04-01T00:31:10;2.05;;;0.90;;
74689;SDS011;63221;51.860;-2.188;2023-04-01T00:33:36;3.30;;;0.52;;
74689;SDS011;63221;51.860;-2.188;2023-04-01T00:36:09;4.17;;;1.30;;
74689;SDS011;63221;51.860;-2.188;2023-04-01T00:38:39;1.40;;;0.60;;
74689;SDS011;63221;51.860;-2.188;2023-04-01T00:41:05;2.28;;;0.57;;
74689;SDS011;63221;51.860;-2.188;2023-04-01T00:43:31;2.20;;;0.60;;
74689;SDS011;63221;51.860;-2.188;2023-04-01T00:45:57;1.77;;;0.63;;
74689;SDS011;63221;51.860;-2.188;2023-04-01T00:48:23;2.45;;;0.63;;
74689;SDS011;63221;51.860;-2.188;2023-04-01T00:51:06;1.63;;;0.60;;
74689;SDS011;63221;51.860;-2.188;2023-04-01T00:53:34;1.95;;;0.40;;
74689;SDS011;63221;51.860;-2.188;2023-04-01T00:56:14;1.70;;;1.55;;
74689;SDS011;63221;51.860;-2.188;2023-04-01T00:58:42;2.30;;;0.70;;
74689;SDS011;63221;51.860;-2.188;2023-04-01T01:01:14;2.65;;;0.90;;
74689;SDS011;63221;51.860;-2.188;2023-04-01T01:03:40;1.87;;;0.53;;
74689;SDS011;63221;51.860;-2.188;2023-04-01T01:11:22;1.92;;;0.52;;
74689;SDS011;63221;51.860;-2.188;2023-04-01T01:13:58;2.50;;;0.52;;
74689;SDS011;63221;51.860;-2.188;2023-04-01T01:16:29;1.63;;;0.80;;
74689;SDS011;63221;51.860;-2.188;2023-04-01T01:24:37;2.95;;;0.50;;
74689;SDS011;63221;51.860;-2.188;2023-04-01T01:27:10;3.30;;;1.00;;
74689;SDS011;63221;51.860;-2.188;2023-04-01T01:32:48;3.40;;;0.75;;
74689;SDS011;63221;51.860;-2.188;2023-04-01T01:35:49;2.70;;;1.02;;
74689;SDS011;63221;51.860;-2.188;2023-04-01T01:38:17;4.68;;;1.38;;
74689;SDS011;63221;51.860;-2.188;2023-04-01T01:40:46;2.72;;;1.00;;
74689;SDS011;63221;51.860;-2.188;2023-04-01T01:43:16;7.17;;;2.43;;
74689;SDS011;63221;51.860;-2.188;2023-04-01T01:45:44;4.30;;;2.25;;
74689;SDS011;63221;51.860;-2.188;2023-04-01T01:48:12;4.10;;;2.63;;
74689;SDS011;63221;51.860;-2.188;2023-04-01T01:50:38;6.37;;;3.10;;
74689;SDS011;63221;51.860;-2.188;2023-04-01T01:53:05;4.88;;;3.47;;
74689;SDS011;63221;51.860;-2.188;2023-04-01T01:55:35;4.13;;;2.78;;
74689;SDS011;63221;51.860;-2.188;2023-04-01T01:58:06;4.85;;;1.65;;
74689;SDS011;63221;51.860;-2.188;2023-04-01T02:00:36;4.25;;;1.77;;
74689;SDS011;63221;51.860;-2.188;2023-04-01T02:03:02;4.47;;;1.67;;
74689;SDS011;63221;51.860;-2.188;2023-04-01T02:05:28;6.05;;;1.50;;
74689;SDS011;63221;51.860;-2.188;2023-04-01T02:08:17;3.45;;;1.48;;
74689;SDS011;63221;51.860;-2.188;2023-04-01T02:10:59;3.15;;;1.73;;
74689;SDS011;63221;51.860;-2.188;2023-04-01T02:13:29;5.47;;;1.58;;
74689;SDS011;63221;51.860;-2.188;2023-04-01T02:15:59;4.67;;;2.07;;
74689;SDS011;63221;51.860;-2.188;2023-04-01T02:18:28;3.90;;;1.42;;
74689;SDS011;63221;51.860;-2.188;2023-04-01T02:20:55;2.35;;;1.00;;
74689;SDS011;63221;51.860;-2.188;2023-04-01T02:23:22;3.40;;;1.42;;
74689;SDS011;63221;51.860;-2.188;2023-04-01T02:25:47;4.30;;;1.43;;
74689;SDS011;63221;51.860;-2.188;2023-04-01T02:28:13;2.63;;;1.23;;
74689;SDS011;63221;51.860;-2.188;2023-04-01T02:30:41;4.82;;;1.50;;
74689;SDS011;63221;51.860;-2.188;2023-04-01T02:33:07;3.40;;;1.67;;
74689;SDS011;63221;51.860;-2.188;2023-04-01T02:35:35;3.67;;;0.73;;
74689;SDS011;63221;51.860;-2.188;2023-04-01T02:38:02;3.50;;;1.10;;
74689;SDS011;63221;51.860;-2.188;2023-04-01T02:40:27;3.77;;;1.10;;
74689;SDS011;63221;51.860;-2.188;2023-04-01T02:42:53;3.95;;;0.98;;
74689;SDS011;63221;51.860;-2.188;2023-04-01T02:45:18;4.90;;;1.13;;
74689;SDS011;63221;51.860;-2.188;2023-04-01T02:47:44;2.50;;;0.67;;
74689;SDS011;63221;51.860;-2.188;2023-04-01T02:50:09;3.17;;;1.50;;
74689;SDS011;63221;51.860;-2.188;2023-04-01T02:52:35;2.70;;;1.25;;
74689;SDS011;63221;51.860;-2.188;2023-04-01T02:55:00;2.67;;;1.03;;
74689;SDS011;63221;51.860;-2.188;2023-04-01T02:57:26;4.23;;;1.20;;
74689;SDS011;63221;51.860;-2.188;2023-04-01T02:59:51;3.83;;;1.10;;
74689;SDS011;63221;51.860;-2.188;2023-04-01T03:02:17;4.67;;;0.90;;
74689;SDS011;63221;51.860;-2.188;2023-04-01T03:04:42;4.07;;;1.27;;
74689;SDS011;63221;51.860;-2.188;2023-04-01T03:07:08;3.55;;;1.33;;
74689;SDS011;63221;51.860;-2.188;2023-04-01T03:09:35;5.22;;;1.17;;
74689;SDS011;63221;51.860;-2.188;2023-04-01T03:12:01;4.00;;;1.90;;
74689;SDS011;63221;51.860;-2.188;2023-04-01T03:14:27;2.67;;;1.10;;
74689;SDS011;63221;51.860;-2.188;2023-04-01T03:16:52;4.00;;;2.57;;
74689;SDS011;63221;51.860;-2.188;2023-04-01T03:19:17;3.50;;;1.50;;
74689;SDS011;63221;51.860;-2.188;2023-04-01T03:21:43;3.40;;;2.03;;
74689;SDS011;63221;51.860;-2.188;2023-04-01T03:24:08;6.82;;;1.45;;
74689;SDS011;63221;51.860;-2.188;2023-04-01T03:26:34;4.93;;;1.87;;
74689;SDS011;63221;51.860;-2.188;2023-04-01T03:28:59;4.17;;;1.87;;
74689;SDS011;63221;51.860;-2.188;2023-04-01T03:31:25;4.60;;;1.60;;
74689;SDS011;63221;51.860;-2.188;2023-04-01T03:33:50;4.83;;;1.97;;
74689;SDS011;63221;51.860;-2.188;2023-04-01T03:36:16;3.43;;;1.73;;
74689;SDS011;63221;51.860;-2.188;2023-04-01T03:38:42;3.63;;;1.52;;
74689;SDS011;63221;51.860;-2.188;2023-04-01T03:41:11;4.97;;;2.33;;
74689;SDS011;63221;51.860;-2.188;2023-04-01T03:43:40;4.35;;;1.83;;
74689;SDS011;63221;51.860;-2.188;2023-04-01T03:46:05;4.07;;;2.03;;
74689;SDS011;63221;51.860;-2.188;2023-04-01T03:48:31;3.30;;;1.80;;
74689;SDS011;63221;51.860;-2.188;2023-04-01T03:50:56;2.70;;;1.50;;
74689;SDS011;63221;51.860;-2.188;2023-04-01T03:53:22;2.73;;;1.73;;
74689;SDS011;63221;51.860;-2.188;2023-04-01T03:55:47;3.70;;;1.73;;
74689;SDS011;63221;51.860;-2.188;2023-04-01T03:58:13;4.28;;;2.00;;
74689;SDS011;63221;51.860;-2.188;2023-04-01T04:00:39;3.57;;;1.37;;
74689;SDS011;63221;51.860;-2.188;2023-04-01T04:03:05;3.75;;;1.98;;
74689;SDS011;63221;51.860;-2.188;2023-04-01T04:05:31;3.70;;;1.80;;
74689;SDS011;63221;51.860;-2.188;2023-04-01T04:07:56;5.37;;;1.43;;
74689;SDS011;63221;51.860;-2.188;2023-04-01T04:10:22;4.33;;;2.23;;
74689;SDS011;63221;51.860;-2.188;2023-04-01T04:12:48;2.95;;;1.90;;
74689;SDS011;63221;51.860;-2.188;2023-04-01T04:15:14;7.13;;;2.13;;
74689;SDS011;63221;51.860;-2.188;2023-04-01T04:17:40;5.25;;;2.05;;
74689;SDS011;63221;51.860;-2.188;2023-04-01T04:20:06;4.93;;;1.70;;
74689;SDS011;63221;51.860;-2.188;2023-04-01T04:22:33;4.87;;;1.50;;
74689;SDS011;63221;51.860;-2.188;2023-04-01T04:24:58;5.27;;;2.00;;
74689;SDS011;63221;51.860;-2.188;2023-04-01T04:27:23;5.00;;;2.17;;
74689;SDS011;63221;51.860;-2.188;2023-04-01T04:29:49;3.97;;;1.77;;
74689;SDS011;63221;51.860;-2.188;2023-04-01T04:32:14;6.27;;;2.50;;
74689;SDS011;63221;51.860;-2.188;2023-04-01T04:34:40;6.23;;;3.10;;
74689;SDS011;63221;51.860;-2.188;2023-04-01T04:37:05;4.70;;;2.07;;
74689;SDS011;63221;51.860;-2.188;2023-04-01T04:39:31;7.33;;;3.10;;
74689;SDS011;63221;51.860;-2.188;2023-04-01T04:41:56;6.33;;;3.23;;
74689;SDS011;63221;51.860;-2.188;2023-04-01T04:44:21;7.70;;;3.83;;
74689;SDS011;63221;51.860;-2.188;2023-04-01T04:46:47;8.98;;;3.85;;
74689;SDS011;63221;51.860;-2.188;2023-04-01T04:49:12;5.33;;;2.20;;
74689;SDS011;63221;51.860;-2.188;2023-04-01T04:51:38;5.23;;;3.20;;
74689;SDS011;63221;51.860;-2.188;2023-04-01T04:54:04;8.67;;;3.57;;
74689;SDS011;63221;51.860;-2.188;2023-04-01T04:56:29;8.97;;;3.50;;
74689;SDS011;63221;51.860;-2.188;2023-04-01T04:58:55;6.45;;;3.08;;
74689;SDS011;63221;51.860;-2.188;2023-04-01T05:01:21;9.23;;;3.90;;
74689;SDS011;63221;51.860;-2.188;2023-04-01T05:03:46;9.45;;;4.82;;
74689;SDS011;63221;51.860;-2.188;2023-04-01T05:06:13;10.03;;;4.20;;
74689;SDS011;63221;51.860;-2.188;2023-04-01T05:08:39;7.65;;;4.78;;
74689;SDS011;63221;51.860;-2.188;2023-04-01T05:11:07;9.63;;;5.32;;
74689;SDS011;63221;51.860;-2.188;2023-04-01T05:13:35;12.80;;;5.53;;
74689;SDS011;63221;51.860;-2.188;2023-04-01T05:16:01;11.32;;;5.55;;
74689;SDS011;63221;51.860;-2.188;2023-04-01T05:18:26;13.93;;;6.63;;
74689;SDS011;63221;51.860;-2.188;2023-04-01T05:20:52;14.17;;;7.47;;
74689;SDS011;63221;51.860;-2.188;2023-04-01T05:23:19;13.75;;;6.75;;
74689;SDS011;63221;51.860;-2.188;2023-04-01T05:25:46;15.60;;;6.90;;
74689;SDS011;63221;51.860;-2.188;2023-04-01T05:28:12;15.88;;;6.90;;
74689;SDS011;63221;51.860;-2.188;2023-04-01T05:30:41;17.73;;;8.87;;
74689;SDS011;63221;51.860;-2.188;2023-04-01T05:33:07;18.57;;;8.43;;
74689;SDS011;63221;51.860;-2.188;2023-04-01T05:35:33;17.60;;;8.15;;
74689;SDS011;63221;51.860;-2.188;2023-04-01T05:37:59;19.77;;;8.93;;
74689;SDS011;63221;51.860;-2.188;2023-04-01T05:40:24;17.03;;;8.00;;
74689;SDS011;63221;51.860;-2.188;2023-04-01T05:42:50;21.00;;;9.27;;
74689;SDS011;63221;51.860;-2.188;2023-04-01T05:45:15;20.50;;;8.93;;
74689;SDS011;63221;51.860;-2.188;2023-04-01T05:47:41;18.65;;;7.90;;
74689;SDS011;63221;51.860;-2.188;2023-04-01T05:50:07;20.17;;;8.35;;
74689;SDS011;63221;51.860;-2.188;2023-04-01T05:52:35;23.30;;;9.00;;
74689;SDS011;63221;51.860;-2.188;2023-04-01T05:55:00;17.83;;;8.65;;
74689;SDS011;63221;51.860;-2.188;2023-04-01T05:57:26;19.27;;;9.43;;
74689;SDS011;63221;51.860;-2.188;2023-04-01T05:59:51;20.03;;;9.27;;
74689;SDS011;63221;51.860;-2.188;2023-04-01T06:02:17;21.43;;;10.20;;
74689;SDS011;63221;51.860;-2.188;2023-04-01T06:04:43;23.40;;;10.63;;
74689;SDS011;63221;51.860;-2.188;2023-04-01T06:07:13;23.60;;;9.43;;
74689;SDS011;63221;51.860;-2.188;2023-04-01T06:09:39;22.38;;;9.07;;
74689;SDS011;63221;51.860;-2.188;2023-04-01T06:46:12;13.13;;;5.60;;
74689;SDS011;63221;51.860;-2.188;2023-04-01T06:49:12;11.98;;;6.05;;
74689;SDS011;63221;51.860;-2.188;2023-04-01T06:51:53;12.90;;;4.93;;
74689;SDS011;63221;51.860;-2.188;2023-04-01T06:54:51;15.40;;;5.97;;
74689;SDS011;63221;51.860;-2.188;2023-04-01T07:00:32;13.73;;;5.25;;
74689;SDS011;63221;51.860;-2.188;2023-04-01T07:05:56;12.68;;;5.13;;
74689;SDS011;63221;51.860;-2.188;2023-04-01T07:08:25;12.02;;;5.65;;
74689;SDS011;63221;51.860;-2.188;2023-04-01T07:11:01;13.70;;;4.70;;
74689;SDS011;63221;51.860;-2.188;2023-04-01T07:13:30;12.77;;;5.00;;
74689;SDS011;63221;51.860;-2.188;2023-04-01T07:16:16;11.32;;;5.35;;
74689;SDS011;63221;51.860;-2.188;2023-04-01T07:18:50;12.02;;;5.07;;
74689;SDS011;63221;51.860;-2.188;2023-04-01T07:26:54;8.65;;;4.45;;
74689;SDS011;63221;51.860;-2.188;2023-04-01T07:29:20;9.23;;;4.32;;
74689;SDS011;63221;51.860;-2.188;2023-04-01T07:48:00;9.23;;;4.37;;
74689;SDS011;63221;51.860;-2.188;2023-04-01T07:50:31;10.32;;;5.60;;
74689;SDS011;63221;51.860;-2.188;2023-04-01T07:55:43;12.30;;;5.07;;
74689;SDS011;63221;51.860;-2.188;2023-04-01T08:01:28;10.80;;;4.93;;
74689;SDS011;63221;51.860;-2.188;2023-04-01T08:06:50;15.23;;;6.47;;
74689;SDS011;63221;51.860;-2.188;2023-04-01T08:11:59;12.65;;;6.75;;
74689;SDS011;63221;51.860;-2.188;2023-04-01T08:17:05;13.75;;;5.70;;
74689;SDS011;63221;51.860;-2.188;2023-04-01T08:22:26;11.35;;;5.50;;
74689;SDS011;63221;51.860;-2.188;2023-04-01T08:24:55;11.45;;;5.03;;
74689;SDS011;63221;51.860;-2.188;2023-04-01T08:27:26;16.73;;;6.47;;
74689;SDS011;63221;51.860;-2.188;2023-04-01T08:30:21;14.50;;;6.60;;
74689;SDS011;63221;51.860;-2.188;2023-04-01T08:32:58;13.55;;;6.82;;
74689;SDS011;63221;51.860;-2.188;2023-04-01T08:35:30;12.15;;;6.03;;
74689;SDS011;63221;51.860;-2.188;2023-04-01T08:38:00;11.82;;;5.68;;
74689;SDS011;63221;51.860;-2.188;2023-04-01T08:46:13;11.35;;;5.85;;
74689;SDS011;63221;51.860;-2.188;2023-04-01T08:57:45;14.75;;;6.35;;
74689;SDS011;63221;51.860;-2.188;2023-04-01T09:02:55;12.50;;;5.40;;
74689;SDS011;63221;51.860;-2.188;2023-04-01T09:16:42;12.55;;;5.07;;
74689;SDS011;63221;51.860;-2.188;2023-04-01T09:19:21;11.65;;;4.55;;
74689;SDS011;63221;51.860;-2.188;2023-04-01T09:27:43;10.95;;;5.63;;
74689;SDS011;63221;51.860;-2.188;2023-04-01T09:33:11;11.48;;;5.28;;
74689;SDS011;63221;51.860;-2.188;2023-04-01T09:35:50;12.97;;;5.90;;
74689;SDS011;63221;51.860;-2.188;2023-04-01T09:41:10;15.27;;;6.20;;
74689;SDS011;63221;51.860;-2.188;2023-04-01T09:43:57;14.45;;;6.13;;
74689;SDS011;63221;51.860;-2.188;2023-04-01T09:47:10;11.60;;;5.50;;
74689;SDS011;63221;51.860;-2.188;2023-04-01T09:52:39;14.70;;;5.88;;
74689;SDS011;63221;51.860;-2.188;2023-04-01T10:03:58;16.00;;;6.67;;
74689;SDS011;63221;51.860;-2.188;2023-04-01T10:15:40;11.68;;;5.78;;
74689;SDS011;63221;51.860;-2.188;2023-04-01T10:43:31;12.30;;;5.55;;
74689;SDS011;63221;51.860;-2.188;2023-04-01T10:49:09;11.70;;;5.28;;
74689;SDS011;63221;51.860;-2.188;2023-04-01T11:19:43;7.10;;;3.63;;
74689;SDS011;63221;51.860;-2.188;2023-04-01T11:22:41;9.98;;;3.00;;
74689;SDS011;63221;51.860;-2.188;2023-04-01T11:25:50;8.75;;;3.60;;
74689;SDS011;63221;51.860;-2.188;2023-04-01T11:39:16;5.95;;;2.45;;
74689;SDS011;63221;51.860;-2.188;2023-04-01T11:41:55;6.97;;;4.03;;
74689;SDS011;63221;51.860;-2.188;2023-04-01T11:44:29;8.48;;;3.28;;
74689;SDS011;63221;51.860;-2.188;2023-04-01T11:52:21;6.35;;;2.85;;
74689;SDS011;63221;51.860;-2.188;2023-04-01T11:54:59;7.10;;;2.20;;
74689;SDS011;63221;51.860;-2.188;2023-04-01T12:00:28;6.53;;;3.22;;
74689;SDS011;63221;51.860;-2.188;2023-04-01T12:06:05;6.60;;;2.67;;
74689;SDS011;63221;51.860;-2.188;2023-04-01T12:11:33;3.92;;;2.63;;
74689;SDS011;63221;51.860;-2.188;2023-04-01T12:14:53;4.43;;;2.70;;
74689;SDS011;63221;51.860;-2.188;2023-04-01T12:19:54;6.57;;;2.50;;
74689;SDS011;63221;51.860;-2.188;2023-04-01T12:22:28;4.13;;;2.07;;
74689;SDS011;63221;51.860;-2.188;2023-04-01T12:28:03;4.00;;;2.40;;
74689;SDS011;63221;51.860;-2.188;2023-04-01T12:44:34;4.15;;;2.33;;
74689;SDS011;63221;51.860;-2.188;2023-04-01T12:55:40;4.82;;;2.65;;
74689;SDS011;63221;51.860;-2.188;2023-04-01T13:01:34;2.87;;;2.07;;
74689;SDS011;63221;51.860;-2.188;2023-04-01T13:09:45;6.10;;;2.25;;
74689;SDS011;63221;51.860;-2.188;2023-04-01T13:15:21;3.73;;;1.90;;
74689;SDS011;63221;51.860;-2.188;2023-04-01T13:17:53;5.30;;;2.50;;
74689;SDS011;63221;51.860;-2.188;2023-04-01T13:20:44;6.20;;;1.88;;
74689;SDS011;63221;51.860;-2.188;2023-04-01T13:26:29;4.78;;;2.00;;
74689;SDS011;63221;51.860;-2.188;2023-04-01T13:29:03;4.57;;;2.73;;
74689;SDS011;63221;51.860;-2.188;2023-04-01T13:31:41;5.40;;;2.95;;
74689;SDS011;63221;51.860;-2.188;2023-04-01T13:42:23;4.90;;;2.67;;
74689;SDS011;63221;51.860;-2.188;2023-04-01T13:44:56;5.82;;;2.72;;
74689;SDS011;63221;51.860;-2.188;2023-04-01T13:55:51;5.63;;;2.77;;
74689;SDS011;63221;51.860;-2.188;2023-04-01T13:58:23;4.78;;;2.17;;
74689;SDS011;63221;51.860;-2.188;2023-04-01T14:09:25;5.87;;;3.00;;
74689;SDS011;63221;51.860;-2.188;2023-04-01T14:20:41;4.95;;;2.75;;
74689;SDS011;63221;51.860;-2.188;2023-04-01T14:26:19;5.78;;;2.75;;
74689;SDS011;63221;51.860;-2.188;2023-04-01T14:46:08;2.70;;;1.17;;
74689;SDS011;63221;51.860;-2.188;2023-04-01T14:53:59;3.00;;;1.42;;
74689;SDS011;63221;51.860;-2.188;2023-04-01T14:56:41;1.67;;;1.20;;
74689;SDS011;63221;51.860;-2.188;2023-04-01T15:02:03;2.50;;;1.35;;
74689;SDS011;63221;51.860;-2.188;2023-04-01T15:10:09;0.82;;;0.40;;
74689;SDS011;63221;51.860;-2.188;2023-04-01T15:18:38;1.30;;;0.60;;
74689;SDS011;63221;51.860;-2.188;2023-04-01T15:24:03;1.30;;;1.15;;
74689;SDS011;63221;51.860;-2.188;2023-04-01T15:26:50;1.73;;;1.50;;
74689;SDS011;63221;51.860;-2.188;2023-04-01T15:37:29;3.28;;;1.48;;
74689;SDS011;63221;51.860;-2.188;2023-04-01T15:40:17;2.30;;;1.40;;
74689;SDS011;63221;51.860;-2.188;2023-04-01T15:43:02;1.85;;;1.50;;
74689;SDS011;63221;51.860;-2.188;2023-04-01T15:45:56;2.23;;;1.33;;
74689;SDS011;63221;51.860;-2.188;2023-04-01T15:53:56;2.20;;;1.50;;
74689;SDS011;63221;51.860;-2.188;2023-04-01T16:02:00;2.00;;;1.02;;
74689;SDS011;63221;51.860;-2.188;2023-04-01T16:04:54;2.70;;;1.35;;
74689;SDS011;63221;51.860;-2.188;2023-04-01T16:12:19;1.77;;;0.90;;
74689;SDS011;63221;51.860;-2.188;2023-04-01T16:17:54;3.08;;;1.38;;
74689;SDS011;63221;51.860;-2.188;2023-04-01T16:23:46;2.20;;;1.38;;
74689;SDS011;63221;51.860;-2.188;2023-04-01T16:26:19;1.60;;;1.47;;
74689;SDS011;63221;51.860;-2.188;2023-04-01T16:28:57;2.75;;;1.65;;
74689;SDS011;63221;51.860;-2.188;2023-04-01T16:34:39;1.98;;;1.58;;
74689;SDS011;63221;51.860;-2.188;2023-04-01T16:58:32;4.47;;;1.53;;
74689;SDS011;63221;51.860;-2.188;2023-04-01T17:01:07;1.55;;;0.65;;
74689;SDS011;63221;51.860;-2.188;2023-04-01T17:03:40;1.83;;;0.75;;
74689;SDS011;63221;51.860;-2.188;2023-04-01T17:11:19;2.10;;;1.03;;
74689;SDS011;63221;51.860;-2.188;2023-04-01T17:13:52;2.58;;;1.25;;
74689;SDS011;63221;51.860;-2.188;2023-04-01T17:16:50;1.48;;;0.85;;
74689;SDS011;63221;51.860;-2.188;2023-04-01T17:21:48;1.77;;;0.88;;
74689;SDS011;63221;51.860;-2.188;2023-04-01T17:27:44;2.25;;;1.25;;
74689;SDS011;63221;51.860;-2.188;2023-04-01T17:32:52;1.95;;;0.82;;
74689;SDS011;63221;51.860;-2.188;2023-04-01T17:35:26;1.83;;;0.77;;
74689;SDS011;63221;51.860;-2.188;2023-04-01T17:41:18;1.50;;;0.73;;
74689;SDS011;63221;51.860;-2.188;2023-04-01T17:43:53;1.58;;;1.02;;
74689;SDS011;63221;51.860;-2.188;2023-04-01T17:49:22;1.42;;;1.00;;
74689;SDS011;63221;51.860;-2.188;2023-04-01T17:57:54;2.35;;;1.67;;
74689;SDS011;63221;51.860;-2.188;2023-04-01T18:00:26;6.40;;;1.63;;
74689;SDS011;63221;51.860;-2.188;2023-04-01T18:11:15;6.57;;;2.28;;
74689;SDS011;63221;51.860;-2.188;2023-04-01T18:22:19;1.48;;;0.80;;
74689;SDS011;63221;51.860;-2.188;2023-04-01T18:27:46;1.02;;;0.50;;
74689;SDS011;63221;51.860;-2.188;2023-04-01T18:38:34;1.35;;;0.40;;
74689;SDS011;63221;51.860;-2.188;2023-04-01T18:44:04;1.23;;;1.02;;
74689;SDS011;63221;51.860;-2.188;2023-04-01T18:51:56;1.48;;;0.75;;
74689;SDS011;63221;51.860;-2.188;2023-04-01T18:54:31;1.17;;;0.50;;
74689;SDS011;63221;51.860;-2.188;2023-04-01T18:57:02;1.30;;;0.40;;
74689;SDS011;63221;51.860;-2.188;2023-04-01T19:00:13;1.63;;;0.85;;
74689;SDS011;63221;51.860;-2.188;2023-04-01T19:07:49;1.55;;;0.60;;
74689;SDS011;63221;51.860;-2.188;2023-04-01T19:13:16;1.55;;;0.70;;
74689;SDS011;63221;51.860;-2.188;2023-04-01T19:18:51;2.50;;;0.73;;
74689;SDS011;63221;51.860;-2.188;2023-04-01T19:21:26;1.00;;;0.70;;
74689;SDS011;63221;51.860;-2.188;2023-04-01T19:26:49;1.35;;;0.28;;
74689;SDS011;63221;51.860;-2.188;2023-04-01T19:34:57;2.33;;;0.70;;
74689;SDS011;63221;51.860;-2.188;2023-04-01T19:37:35;1.45;;;0.38;;
74689;SDS011;63221;51.860;-2.188;2023-04-01T19:57:15;1.10;;;0.50;;
74689;SDS011;63221;51.860;-2.188;2023-04-01T20:07:59;4.25;;;1.90;;
74689;SDS011;63221;51.860;-2.188;2023-04-01T20:16:36;1.73;;;1.10;;
74689;SDS011;63221;51.860;-2.188;2023-04-01T20:25:08;4.73;;;1.40;;
74689;SDS011;63221;51.860;-2.188;2023-04-01T20:27:36;3.58;;;1.35;;
74689;SDS011;63221;51.860;-2.188;2023-04-01T20:44:22;2.05;;;1.40;;
74689;SDS011;63221;51.860;-2.188;2023-04-01T20:55:58;2.00;;;1.00;;
74689;SDS011;63221;51.860;-2.188;2023-04-01T20:58:54;2.33;;;1.58;;
74689;SDS011;63221;51.860;-2.188;2023-04-01T21:01:39;3.25;;;1.55;;
74689;SDS011;63221;51.860;-2.188;2023-04-01T21:37:01;3.65;;;2.55;;
74689;SDS011;63221;51.860;-2.188;2023-04-01T21:42:32;7.93;;;2.38;;
74689;SDS011;63221;51.860;-2.188;2023-04-01T21:45:25;2.75;;;1.50;;
74689;SDS011;63221;51.860;-2.188;2023-04-01T22:00:00;3.42;;;1.05;;
74689;SDS011;63221;51.860;-2.188;2023-04-01T22:05:30;3.65;;;1.63;;
74689;SDS011;63221;51.860;-2.188;2023-04-01T22:13:16;2.33;;;1.25;;
74689;SDS011;63221;51.860;-2.188;2023-04-01T22:15:55;4.80;;;1.93;;
74689;SDS011;63221;51.860;-2.188;2023-04-01T22:18:46;2.75;;;1.45;;
74689;SDS011;63221;51.860;-2.188;2023-04-01T22:21:41;3.15;;;1.77;;
74689;SDS011;63221;51.860;-2.188;2023-04-01T22:24:22;2.85;;;1.25;;
74689;SDS011;63221;51.860;-2.188;2023-04-01T22:27:44;2.70;;;1.55;;
74689;SDS011;63221;51.860;-2.188;2023-04-01T22:30:17;5.07;;;1.87;;
74689;SDS011;63221;51.860;-2.188;2023-04-01T22:32:49;3.65;;;1.90;;
74689;SDS011;63221;51.860;-2.188;2023-04-01T22:41:02;3.85;;;1.55;;
74689;SDS011;63221;51.860;-2.188;2023-04-01T22:43:38;3.20;;;2.07;;
74689;SDS011;63221;51.860;-2.188;2023-04-01T22:46:08;5.10;;;1.98;;
74689;SDS011;63221;51.860;-2.188;2023-04-01T22:57:07;4.07;;;2.00;;
74689;SDS011;63221;51.860;-2.188;2023-04-01T23:02:30;4.15;;;2.63;;
74689;SDS011;63221;51.860;-2.188;2023-04-01T23:04:59;4.85;;;2.22;;
74689;SDS011;63221;51.860;-2.188;2023-04-01T23:10:02;4.57;;;2.20;;
74689;SDS011;63221;51.860;-2.188;2023-04-01T23:12:31;4.82;;;2.10;;
74689;SDS011;63221;51.860;-2.188;2023-04-01T23:15:01;3.45;;;2.20;;
74689;SDS011;63221;51.860;-2.188;2023-04-01T23:22:43;4.00;;;1.93;;
74689;SDS011;63221;51.860;-2.188;2023-04-01T23:25:43;3.55;;;1.77;;
74689;SDS011;63221;51.860;-2.188;2023-04-01T23:35:55;8.55;;;2.05;;
74689;SDS011;63221;51.860;-2.188;2023-04-01T23:38:30;4.82;;;2.05;;
74689;SDS011;63221;51.860;-2.188;2023-04-01T23:40:57;6.13;;;2.78;;
74689;SDS011;63221;51.860;-2.188;2023-04-01T23:43:33;3.87;;;2.50;;
74689;SDS011;63221;51.860;-2.188;2023-04-01T23:46:01;4.57;;;2.15;;
74689;SDS011;63221;51.860;-2.188;2023-04-01T23:48:32;4.57;;;2.30;;
74689;SDS011;63221;51.860;-2.188;2023-04-01T23:51:00;4.87;;;2.47;;
74689;SDS011;63221;51.860;-2.188;2023-04-01T23:53:28;5.40;;;2.78;;
74689;SDS011;63221;51.860;-2.188;2023-04-01T23:55:55;5.35;;;2.60;;
